RPLL/MNL METAR and TAF weather

Enter ICAO airport designator
Station Type Date Time Source
RPLL METAR 2019/02/20 23:00 UTC NOAA

RPLL 202300Z 07002KT 9999 FEW025 BKN100 25/17 Q1018 NOSIG RMK A3006


Station Type Date Time Source
RPLL Decoded METAR 2019/02/20 23:00 UTC NOAA

Ninoy Aquino Inter-National Airport, Philippines (RPLL) 14-31N 121-00E 15M
Feb 20, 2019 - 06:00 PM EST / 2019.02.20 2300 UTC
Wind: from the ENE (070 degrees) at 2 MPH (2 KT):0
Visibility: greater than 7 mile(s):0
Sky conditions: mostly cloudy
Temperature: 77 F (25 C)
Dew Point: 62 F (17 C)
Relative Humidity: 61%
Pressure (altimeter): 30.06 in. Hg (1018 hPa)
ob: RPLL 202300Z 07002KT 9999 FEW025 BKN100 25/17 Q1018 NOSIG RMK A3006
cycle: 23

Station Type Date Time Source
RPLL TAF 2019/02/20 18:03 UTC NOAA

TAF RPLL 201700Z 2018/2124 10008KT 9999 FEW025 TX32/2106Z TN23/2021Z
TEMPO 2018/2024 04007KT FEW030
TEMPO 2103/2109 11016KT


Example: see airport list